sensor_id;sensor_type;location;lat;lon;timestamp;P1;durP1;ratioP1;P2;durP2;ratioP2
76712;SDS011;65640;43.154;25.658;2023-02-19T00:00:55;6.68;;;5.80;;
76712;SDS011;65640;43.154;25.658;2023-02-19T00:03:21;8.73;;;6.55;;
76712;SDS011;65640;43.154;25.658;2023-02-19T00:05:46;9.35;;;5.68;;
76712;SDS011;65640;43.154;25.658;2023-02-19T00:08:11;6.53;;;5.30;;
76712;SDS011;65640;43.154;25.658;2023-02-19T00:10:37;8.48;;;6.60;;
76712;SDS011;65640;43.154;25.658;2023-02-19T00:13:02;6.47;;;5.60;;
76712;SDS011;65640;43.154;25.658;2023-02-19T00:15:30;7.50;;;5.93;;
76712;SDS011;65640;43.154;25.658;2023-02-19T00:17:56;9.32;;;5.72;;
76712;SDS011;65640;43.154;25.658;2023-02-19T00:20:22;12.77;;;7.05;;
76712;SDS011;65640;43.154;25.658;2023-02-19T00:22:47;10.15;;;6.63;;
76712;SDS011;65640;43.154;25.658;2023-02-19T00:25:12;10.43;;;6.60;;
76712;SDS011;65640;43.154;25.658;2023-02-19T00:27:38;8.65;;;6.82;;
76712;SDS011;65640;43.154;25.658;2023-02-19T00:30:03;13.82;;;7.43;;
76712;SDS011;65640;43.154;25.658;2023-02-19T00:32:29;10.18;;;7.20;;
76712;SDS011;65640;43.154;25.658;2023-02-19T00:34:54;13.63;;;7.97;;
76712;SDS011;65640;43.154;25.658;2023-02-19T00:37:20;11.68;;;7.68;;
76712;SDS011;65640;43.154;25.658;2023-02-19T00:39:45;11.88;;;6.03;;
76712;SDS011;65640;43.154;25.658;2023-02-19T00:42:11;12.38;;;5.90;;
76712;SDS011;65640;43.154;25.658;2023-02-19T00:44:36;9.88;;;6.30;;
76712;SDS011;65640;43.154;25.658;2023-02-19T00:47:01;11.80;;;6.85;;
76712;SDS011;65640;43.154;25.658;2023-02-19T00:49:27;16.70;;;8.23;;
76712;SDS011;65640;43.154;25.658;2023-02-19T00:51:52;14.88;;;8.85;;
76712;SDS011;65640;43.154;25.658;2023-02-19T00:54:18;11.30;;;7.05;;
76712;SDS011;65640;43.154;25.658;2023-02-19T00:56:44;12.02;;;6.90;;
76712;SDS011;65640;43.154;25.658;2023-02-19T00:59:10;10.48;;;6.32;;
76712;SDS011;65640;43.154;25.658;2023-02-19T01:01:35;8.75;;;6.35;;
76712;SDS011;65640;43.154;25.658;2023-02-19T01:04:01;15.48;;;6.57;;
76712;SDS011;65640;43.154;25.658;2023-02-19T01:06:26;15.68;;;10.80;;
76712;SDS011;65640;43.154;25.658;2023-02-19T01:08:54;14.82;;;9.10;;
76712;SDS011;65640;43.154;25.658;2023-02-19T01:11:20;14.57;;;8.73;;
76712;SDS011;65640;43.154;25.658;2023-02-19T01:13:46;47.03;;;9.23;;
76712;SDS011;65640;43.154;25.658;2023-02-19T01:16:12;24.02;;;8.80;;
76712;SDS011;65640;43.154;25.658;2023-02-19T01:18:40;11.60;;;8.02;;
76712;SDS011;65640;43.154;25.658;2023-02-19T01:21:07;13.55;;;8.32;;
76712;SDS011;65640;43.154;25.658;2023-02-19T01:23:35;13.40;;;9.15;;
76712;SDS011;65640;43.154;25.658;2023-02-19T01:26:04;14.27;;;9.18;;
76712;SDS011;65640;43.154;25.658;2023-02-19T01:28:32;14.43;;;9.20;;
76712;SDS011;65640;43.154;25.658;2023-02-19T01:31:02;11.48;;;8.77;;
76712;SDS011;65640;43.154;25.658;2023-02-19T01:33:28;16.58;;;10.60;;
76712;SDS011;65640;43.154;25.658;2023-02-19T01:35:53;18.20;;;10.02;;
76712;SDS011;65640;43.154;25.658;2023-02-19T01:38:19;13.35;;;8.60;;
76712;SDS011;65640;43.154;25.658;2023-02-19T01:40:52;10.98;;;8.13;;
76712;SDS011;65640;43.154;25.658;2023-02-19T01:43:18;12.23;;;7.40;;
76712;SDS011;65640;43.154;25.658;2023-02-19T01:45:44;15.85;;;8.98;;
76712;SDS011;65640;43.154;25.658;2023-02-19T01:48:15;11.60;;;8.07;;
76712;SDS011;65640;43.154;25.658;2023-02-19T01:50:48;10.00;;;7.15;;
76712;SDS011;65640;43.154;25.658;2023-02-19T01:53:18;14.10;;;7.32;;
76712;SDS011;65640;43.154;25.658;2023-02-19T01:55:48;12.27;;;8.35;;
76712;SDS011;65640;43.154;25.658;2023-02-19T01:58:17;11.60;;;7.82;;
76712;SDS011;65640;43.154;25.658;2023-02-19T02:00:43;12.13;;;7.65;;
76712;SDS011;65640;43.154;25.658;2023-02-19T02:03:09;12.95;;;7.78;;
76712;SDS011;65640;43.154;25.658;2023-02-19T02:08:28;13.85;;;8.20;;
76712;SDS011;65640;43.154;25.658;2023-02-19T02:11:14;19.52;;;9.63;;
76712;SDS011;65640;43.154;25.658;2023-02-19T02:13:39;21.60;;;11.70;;
76712;SDS011;65640;43.154;25.658;2023-02-19T02:16:39;21.60;;;10.65;;
76712;SDS011;65640;43.154;25.658;2023-02-19T02:19:27;15.13;;;9.07;;
76712;SDS011;65640;43.154;25.658;2023-02-19T02:33:16;18.25;;;9.43;;
76712;SDS011;65640;43.154;25.658;2023-02-19T02:38:35;20.63;;;11.00;;
76712;SDS011;65640;43.154;25.658;2023-02-19T02:41:03;25.73;;;11.85;;
76712;SDS011;65640;43.154;25.658;2023-02-19T02:43:29;28.13;;;13.50;;
76712;SDS011;65640;43.154;25.658;2023-02-19T02:45:55;26.42;;;12.52;;
76712;SDS011;65640;43.154;25.658;2023-02-19T02:56:43;21.60;;;10.77;;
76712;SDS011;65640;43.154;25.658;2023-02-19T02:59:11;20.48;;;11.25;;
76712;SDS011;65640;43.154;25.658;2023-02-19T03:01:42;20.98;;;11.48;;
76712;SDS011;65640;43.154;25.658;2023-02-19T03:04:32;22.85;;;11.20;;
76712;SDS011;65640;43.154;25.658;2023-02-19T03:10:11;20.63;;;11.27;;
76712;SDS011;65640;43.154;25.658;2023-02-19T03:12:41;23.90;;;11.48;;
76712;SDS011;65640;43.154;25.658;2023-02-19T03:15:28;29.52;;;13.10;;
76712;SDS011;65640;43.154;25.658;2023-02-19T03:18:18;24.50;;;13.63;;
76712;SDS011;65640;43.154;25.658;2023-02-19T03:21:04;23.02;;;11.85;;
76712;SDS011;65640;43.154;25.658;2023-02-19T03:23:31;22.95;;;12.45;;
76712;SDS011;65640;43.154;25.658;2023-02-19T03:26:17;21.33;;;12.20;;
76712;SDS011;65640;43.154;25.658;2023-02-19T03:28:44;22.80;;;11.73;;
76712;SDS011;65640;43.154;25.658;2023-02-19T03:31:32;29.08;;;13.20;;
76712;SDS011;65640;43.154;25.658;2023-02-19T03:33:59;22.85;;;11.45;;
76712;SDS011;65640;43.154;25.658;2023-02-19T03:36:38;21.40;;;11.32;;
76712;SDS011;65640;43.154;25.658;2023-02-19T03:39:08;14.13;;;7.70;;
76712;SDS011;65640;43.154;25.658;2023-02-19T03:49:55;13.85;;;7.25;;
76712;SDS011;65640;43.154;25.658;2023-02-19T03:55:04;11.45;;;7.53;;
76712;SDS011;65640;43.154;25.658;2023-02-19T03:57:42;11.60;;;7.40;;
76712;SDS011;65640;43.154;25.658;2023-02-19T04:00:17;11.50;;;6.60;;
76712;SDS011;65640;43.154;25.658;2023-02-19T04:02:51;13.43;;;6.50;;
76712;SDS011;65640;43.154;25.658;2023-02-19T04:05:22;16.67;;;7.30;;
76712;SDS011;65640;43.154;25.658;2023-02-19T04:07:52;13.10;;;6.40;;
76712;SDS011;65640;43.154;25.658;2023-02-19T04:10:22;12.95;;;6.88;;
76712;SDS011;65640;43.154;25.658;2023-02-19T04:12:50;17.40;;;9.52;;
76712;SDS011;65640;43.154;25.658;2023-02-19T04:15:21;55.63;;;16.90;;
76712;SDS011;65640;43.154;25.658;2023-02-19T04:18:08;19.10;;;9.90;;
76712;SDS011;65640;43.154;25.658;2023-02-19T04:20:39;18.05;;;8.77;;
76712;SDS011;65640;43.154;25.658;2023-02-19T04:23:08;10.95;;;6.35;;
76712;SDS011;65640;43.154;25.658;2023-02-19T04:25:33;8.25;;;6.18;;
76712;SDS011;65640;43.154;25.658;2023-02-19T04:28:02;7.28;;;5.00;;
76712;SDS011;65640;43.154;25.658;2023-02-19T04:30:28;7.22;;;4.25;;
76712;SDS011;65640;43.154;25.658;2023-02-19T04:32:53;7.50;;;4.60;;
76712;SDS011;65640;43.154;25.658;2023-02-19T04:35:18;10.70;;;5.00;;
76712;SDS011;65640;43.154;25.658;2023-02-19T04:37:44;6.00;;;4.50;;
76712;SDS011;65640;43.154;25.658;2023-02-19T04:40:09;6.65;;;4.63;;
76712;SDS011;65640;43.154;25.658;2023-02-19T04:42:35;5.15;;;4.55;;
76712;SDS011;65640;43.154;25.658;2023-02-19T04:45:00;10.18;;;4.82;;
76712;SDS011;65640;43.154;25.658;2023-02-19T04:47:26;6.10;;;4.82;;
76712;SDS011;65640;43.154;25.658;2023-02-19T04:49:51;4.30;;;3.80;;
76712;SDS011;65640;43.154;25.658;2023-02-19T04:52:17;7.78;;;4.30;;
76712;SDS011;65640;43.154;25.658;2023-02-19T04:54:42;13.57;;;6.28;;
76712;SDS011;65640;43.154;25.658;2023-02-19T04:57:07;17.63;;;8.43;;
76712;SDS011;65640;43.154;25.658;2023-02-19T04:59:33;12.90;;;7.50;;
76712;SDS011;65640;43.154;25.658;2023-02-19T05:01:58;15.57;;;9.30;;
76712;SDS011;65640;43.154;25.658;2023-02-19T05:04:24;13.98;;;9.10;;
76712;SDS011;65640;43.154;25.658;2023-02-19T05:06:49;16.05;;;8.63;;
76712;SDS011;65640;43.154;25.658;2023-02-19T05:09:15;21.20;;;9.80;;
76712;SDS011;65640;43.154;25.658;2023-02-19T05:11:40;18.92;;;9.75;;
76712;SDS011;65640;43.154;25.658;2023-02-19T05:14:06;19.20;;;9.85;;
76712;SDS011;65640;43.154;25.658;2023-02-19T05:16:31;19.10;;;9.80;;
76712;SDS011;65640;43.154;25.658;2023-02-19T05:21:24;18.52;;;10.40;;
76712;SDS011;65640;43.154;25.658;2023-02-19T05:23:49;16.77;;;9.68;;
76712;SDS011;65640;43.154;25.658;2023-02-19T05:26:16;17.90;;;10.13;;
76712;SDS011;65640;43.154;25.658;2023-02-19T05:28:43;11.25;;;7.60;;
76712;SDS011;65640;43.154;25.658;2023-02-19T05:31:09;13.10;;;8.23;;
76712;SDS011;65640;43.154;25.658;2023-02-19T05:33:35;9.80;;;6.80;;
76712;SDS011;65640;43.154;25.658;2023-02-19T05:36:05;11.98;;;6.40;;
76712;SDS011;65640;43.154;25.658;2023-02-19T05:38:33;9.32;;;6.82;;
76712;SDS011;65640;43.154;25.658;2023-02-19T05:41:12;12.32;;;7.30;;
76712;SDS011;65640;43.154;25.658;2023-02-19T05:43:40;23.23;;;10.05;;
76712;SDS011;65640;43.154;25.658;2023-02-19T05:46:06;12.18;;;8.23;;
76712;SDS011;65640;43.154;25.658;2023-02-19T05:48:33;8.98;;;5.60;;
76712;SDS011;65640;43.154;25.658;2023-02-19T05:51:32;10.43;;;5.72;;
76712;SDS011;65640;43.154;25.658;2023-02-19T05:53:51;7.75;;;5.95;;
76712;SDS011;65640;43.154;25.658;2023-02-19T05:58:52;11.88;;;6.95;;
76712;SDS011;65640;43.154;25.658;2023-02-19T06:01:20;10.45;;;6.82;;
76712;SDS011;65640;43.154;25.658;2023-02-19T06:03:47;8.98;;;6.38;;
76712;SDS011;65640;43.154;25.658;2023-02-19T06:06:13;10.38;;;6.07;;
76712;SDS011;65640;43.154;25.658;2023-02-19T06:08:39;14.32;;;5.88;;
76712;SDS011;65640;43.154;25.658;2023-02-19T06:11:05;9.98;;;6.88;;
76712;SDS011;65640;43.154;25.658;2023-02-19T06:13:31;8.82;;;6.63;;
76712;SDS011;65640;43.154;25.658;2023-02-19T06:15:57;7.45;;;6.65;;
76712;SDS011;65640;43.154;25.658;2023-02-19T06:18:22;10.00;;;6.80;;
76712;SDS011;65640;43.154;25.658;2023-02-19T06:20:49;10.27;;;6.85;;
76712;SDS011;65640;43.154;25.658;2023-02-19T06:23:14;11.98;;;6.65;;
76712;SDS011;65640;43.154;25.658;2023-02-19T06:25:40;10.93;;;7.97;;
76712;SDS011;65640;43.154;25.658;2023-02-19T06:28:06;18.38;;;8.98;;
76712;SDS011;65640;43.154;25.658;2023-02-19T06:30:33;13.88;;;8.18;;
76712;SDS011;65640;43.154;25.658;2023-02-19T06:32:58;9.80;;;7.72;;
76712;SDS011;65640;43.154;25.658;2023-02-19T06:35:24;7.93;;;6.85;;
76712;SDS011;65640;43.154;25.658;2023-02-19T06:37:49;11.73;;;7.03;;
76712;SDS011;65640;43.154;25.658;2023-02-19T06:40:15;11.27;;;7.60;;
76712;SDS011;65640;43.154;25.658;2023-02-19T06:42:40;9.13;;;7.47;;
76712;SDS011;65640;43.154;25.658;2023-02-19T06:45:06;12.52;;;8.23;;
76712;SDS011;65640;43.154;25.658;2023-02-19T06:47:32;15.50;;;11.30;;
76712;SDS011;65640;43.154;25.658;2023-02-19T06:49:58;14.50;;;10.45;;
76712;SDS011;65640;43.154;25.658;2023-02-19T06:52:24;20.00;;;11.15;;
76712;SDS011;65640;43.154;25.658;2023-02-19T06:54:50;33.47;;;15.05;;
76712;SDS011;65640;43.154;25.658;2023-02-19T06:57:15;30.77;;;14.80;;
76712;SDS011;65640;43.154;25.658;2023-02-19T06:59:40;39.28;;;16.60;;
76712;SDS011;65640;43.154;25.658;2023-02-19T07:02:06;28.27;;;15.25;;
76712;SDS011;65640;43.154;25.658;2023-02-19T07:04:34;24.20;;;13.07;;
76712;SDS011;65640;43.154;25.658;2023-02-19T07:06:59;20.55;;;10.90;;
76712;SDS011;65640;43.154;25.658;2023-02-19T07:09:25;11.23;;;8.52;;
76712;SDS011;65640;43.154;25.658;2023-02-19T07:11:52;15.35;;;10.80;;
76712;SDS011;65640;43.154;25.658;2023-02-19T07:14:18;16.50;;;11.68;;
76712;SDS011;65640;43.154;25.658;2023-02-19T07:16:44;20.08;;;10.98;;
76712;SDS011;65640;43.154;25.658;2023-02-19T07:19:11;22.27;;;12.25;;
76712;SDS011;65640;43.154;25.658;2023-02-19T07:21:37;21.40;;;12.55;;
76712;SDS011;65640;43.154;25.658;2023-02-19T07:24:03;17.75;;;11.23;;
76712;SDS011;65640;43.154;25.658;2023-02-19T07:26:29;19.05;;;11.65;;
76712;SDS011;65640;43.154;25.658;2023-02-19T07:28:55;22.75;;;11.52;;
76712;SDS011;65640;43.154;25.658;2023-02-19T07:31:21;20.60;;;10.43;;
76712;SDS011;65640;43.154;25.658;2023-02-19T07:33:48;17.92;;;11.35;;
76712;SDS011;65640;43.154;25.658;2023-02-19T07:36:14;19.33;;;10.73;;
76712;SDS011;65640;43.154;25.658;2023-02-19T07:38:42;8.13;;;4.07;;
76712;SDS011;65640;43.154;25.658;2023-02-19T07:41:07;5.45;;;4.15;;
76712;SDS011;65640;43.154;25.658;2023-02-19T07:43:34;4.13;;;3.70;;
76712;SDS011;65640;43.154;25.658;2023-02-19T07:46:08;3.83;;;3.53;;
76712;SDS011;65640;43.154;25.658;2023-02-19T07:48:35;4.30;;;3.83;;
76712;SDS011;65640;43.154;25.658;2023-02-19T07:51:02;4.32;;;4.03;;
76712;SDS011;65640;43.154;25.658;2023-02-19T07:53:29;3.85;;;3.55;;
76712;SDS011;65640;43.154;25.658;2023-02-19T07:56:01;5.85;;;4.18;;
76712;SDS011;65640;43.154;25.658;2023-02-19T07:58:28;4.15;;;3.53;;
76712;SDS011;65640;43.154;25.658;2023-02-19T08:00:54;3.75;;;3.45;;
76712;SDS011;65640;43.154;25.658;2023-02-19T08:03:20;5.22;;;3.53;;
76712;SDS011;65640;43.154;25.658;2023-02-19T08:05:46;3.90;;;3.33;;
76712;SDS011;65640;43.154;25.658;2023-02-19T08:08:13;8.30;;;3.30;;
76712;SDS011;65640;43.154;25.658;2023-02-19T08:10:40;3.25;;;2.95;;
76712;SDS011;65640;43.154;25.658;2023-02-19T08:13:25;2.97;;;2.78;;
76712;SDS011;65640;43.154;25.658;2023-02-19T08:18:33;3.03;;;2.83;;
76712;SDS011;65640;43.154;25.658;2023-02-19T08:20:59;5.07;;;3.13;;
76712;SDS011;65640;43.154;25.658;2023-02-19T08:23:25;6.43;;;3.15;;
76712;SDS011;65640;43.154;25.658;2023-02-19T08:25:51;6.88;;;2.95;;
76712;SDS011;65640;43.154;25.658;2023-02-19T08:30:44;4.13;;;2.97;;
76712;SDS011;65640;43.154;25.658;2023-02-19T08:33:12;3.00;;;2.80;;
76712;SDS011;65640;43.154;25.658;2023-02-19T08:35:39;3.50;;;2.95;;
76712;SDS011;65640;43.154;25.658;2023-02-19T08:38:06;3.28;;;2.10;;
76712;SDS011;65640;43.154;25.658;2023-02-19T08:40:32;4.47;;;2.95;;
76712;SDS011;65640;43.154;25.658;2023-02-19T08:43:08;19.70;;;3.13;;
76712;SDS011;65640;43.154;25.658;2023-02-19T08:45:38;2.75;;;2.55;;
76712;SDS011;65640;43.154;25.658;2023-02-19T08:48:05;5.68;;;2.90;;
76712;SDS011;65640;43.154;25.658;2023-02-19T08:50:31;3.53;;;1.90;;
76712;SDS011;65640;43.154;25.658;2023-02-19T08:52:59;2.63;;;2.13;;
76712;SDS011;65640;43.154;25.658;2023-02-19T08:55:25;3.10;;;2.58;;
76712;SDS011;65640;43.154;25.658;2023-02-19T08:57:51;2.25;;;2.05;;
76712;SDS011;65640;43.154;25.658;2023-02-19T09:00:17;2.88;;;2.67;;
76712;SDS011;65640;43.154;25.658;2023-02-19T09:02:42;4.45;;;2.13;;
76712;SDS011;65640;43.154;25.658;2023-02-19T09:05:09;2.20;;;2.03;;
76712;SDS011;65640;43.154;25.658;2023-02-19T09:07:35;2.20;;;2.00;;
76712;SDS011;65640;43.154;25.658;2023-02-19T09:10:01;2.63;;;2.25;;
76712;SDS011;65640;43.154;25.658;2023-02-19T09:12:27;2.47;;;2.03;;
76712;SDS011;65640;43.154;25.658;2023-02-19T09:14:52;1.77;;;1.55;;
76712;SDS011;65640;43.154;25.658;2023-02-19T09:17:19;1.92;;;1.83;;
76712;SDS011;65640;43.154;25.658;2023-02-19T09:19:44;2.00;;;1.88;;
76712;SDS011;65640;43.154;25.658;2023-02-19T09:22:10;1.77;;;1.67;;
76712;SDS011;65640;43.154;25.658;2023-02-19T09:24:35;1.42;;;1.33;;
76712;SDS011;65640;43.154;25.658;2023-02-19T09:27:01;2.55;;;1.50;;
76712;SDS011;65640;43.154;25.658;2023-02-19T09:29:26;2.13;;;1.92;;
76712;SDS011;65640;43.154;25.658;2023-02-19T09:31:56;2.10;;;1.52;;
76712;SDS011;65640;43.154;25.658;2023-02-19T09:34:23;1.55;;;1.45;;
76712;SDS011;65640;43.154;25.658;2023-02-19T09:36:49;3.33;;;1.23;;
76712;SDS011;65640;43.154;25.658;2023-02-19T09:39:15;2.08;;;1.90;;
76712;SDS011;65640;43.154;25.658;2023-02-19T09:41:53;2.45;;;1.85;;
76712;SDS011;65640;43.154;25.658;2023-02-19T09:44:24;2.53;;;1.90;;
76712;SDS011;65640;43.154;25.658;2023-02-19T09:46:54;5.55;;;1.85;;
76712;SDS011;65640;43.154;25.658;2023-02-19T09:49:27;1.70;;;1.60;;
76712;SDS011;65640;43.154;25.658;2023-02-19T09:54:47;2.50;;;1.65;;
76712;SDS011;65640;43.154;25.658;2023-02-19T09:57:13;3.33;;;1.90;;
76712;SDS011;65640;43.154;25.658;2023-02-19T10:02:36;3.65;;;1.23;;
76712;SDS011;65640;43.154;25.658;2023-02-19T10:05:02;1.30;;;1.20;;
76712;SDS011;65640;43.154;25.658;2023-02-19T10:07:36;1.40;;;1.30;;
76712;SDS011;65640;43.154;25.658;2023-02-19T10:12:37;1.65;;;1.02;;
76712;SDS011;65640;43.154;25.658;2023-02-19T10:15:10;2.97;;;1.23;;
76712;SDS011;65640;43.154;25.658;2023-02-19T10:17:42;1.23;;;1.13;;
76712;SDS011;65640;43.154;25.658;2023-02-19T10:20:17;1.30;;;1.20;;
76712;SDS011;65640;43.154;25.658;2023-02-19T10:22:48;1.55;;;1.20;;
76712;SDS011;65640;43.154;25.658;2023-02-19T10:25:23;3.13;;;1.27;;
76712;SDS011;65640;43.154;25.658;2023-02-19T10:27:48;1.30;;;1.20;;
76712;SDS011;65640;43.154;25.658;2023-02-19T10:30:17;1.92;;;1.40;;
76712;SDS011;65640;43.154;25.658;2023-02-19T10:33:02;1.20;;;1.10;;
76712;SDS011;65640;43.154;25.658;2023-02-19T10:35:34;1.80;;;1.20;;
76712;SDS011;65640;43.154;25.658;2023-02-19T10:38:02;1.60;;;1.20;;
76712;SDS011;65640;43.154;25.658;2023-02-19T10:40:30;1.88;;;1.13;;
76712;SDS011;65640;43.154;25.658;2023-02-19T10:47:53;2.67;;;1.10;;
76712;SDS011;65640;43.154;25.658;2023-02-19T10:50:20;3.63;;;1.20;;
76712;SDS011;65640;43.154;25.658;2023-02-19T10:53:01;1.20;;;1.08;;
76712;SDS011;65640;43.154;25.658;2023-02-19T10:55:28;3.00;;;1.10;;
76712;SDS011;65640;43.154;25.658;2023-02-19T10:57:55;1.02;;;1.00;;
76712;SDS011;65640;43.154;25.658;2023-02-19T11:00:23;2.10;;;2.00;;
76712;SDS011;65640;43.154;25.658;2023-02-19T11:03:11;2.30;;;1.60;;
76712;SDS011;65640;43.154;25.658;2023-02-19T11:05:50;5.57;;;2.50;;
76712;SDS011;65640;43.154;25.658;2023-02-19T11:08:21;2.10;;;1.77;;
76712;SDS011;65640;43.154;25.658;2023-02-19T11:10:48;2.92;;;2.72;;
76712;SDS011;65640;43.154;25.658;2023-02-19T11:13:15;2.25;;;2.05;;
76712;SDS011;65640;43.154;25.658;2023-02-19T11:15:52;1.90;;;1.70;;
76712;SDS011;65640;43.154;25.658;2023-02-19T11:18:25;0.90;;;0.90;;
76712;SDS011;65640;43.154;25.658;2023-02-19T11:20:54;2.80;;;1.17;;
76712;SDS011;65640;43.154;25.658;2023-02-19T11:24:02;0.98;;;0.95;;
76712;SDS011;65640;43.154;25.658;2023-02-19T11:26:20;1.33;;;0.98;;
76712;SDS011;65640;43.154;25.658;2023-02-19T11:29:02;1.67;;;1.10;;
76712;SDS011;65640;43.154;25.658;2023-02-19T11:31:42;1.15;;;1.05;;
76712;SDS011;65640;43.154;25.658;2023-02-19T11:36:39;1.20;;;1.10;;
76712;SDS011;65640;43.154;25.658;2023-02-19T11:44:11;1.98;;;0.70;;
76712;SDS011;65640;43.154;25.658;2023-02-19T11:46:56;5.68;;;0.90;;
76712;SDS011;65640;43.154;25.658;2023-02-19T11:49:49;0.80;;;0.80;;
76712;SDS011;65640;43.154;25.658;2023-02-19T11:52:37;1.20;;;1.10;;
76712;SDS011;65640;43.154;25.658;2023-02-19T11:55:12;4.78;;;1.20;;
76712;SDS011;65640;43.154;25.658;2023-02-19T11:57:53;2.53;;;1.10;;
76712;SDS011;65640;43.154;25.658;2023-02-19T12:00:25;0.85;;;0.80;;
76712;SDS011;65640;43.154;25.658;2023-02-19T12:05:47;1.70;;;0.90;;
76712;SDS011;65640;43.154;25.658;2023-02-19T12:16:30;2.42;;;1.02;;
76712;SDS011;65640;43.154;25.658;2023-02-19T12:19:33;0.90;;;0.90;;
76712;SDS011;65640;43.154;25.658;2023-02-19T12:22:21;2.78;;;1.00;;
76712;SDS011;65640;43.154;25.658;2023-02-19T12:27:54;1.15;;;0.80;;
76712;SDS011;65640;43.154;25.658;2023-02-19T12:35:50;1.00;;;0.90;;
76712;SDS011;65640;43.154;25.658;2023-02-19T12:43:34;1.67;;;0.90;;
76712;SDS011;65640;43.154;25.658;2023-02-19T12:49:03;1.00;;;0.95;;
76712;SDS011;65640;43.154;25.658;2023-02-19T12:54:31;1.70;;;0.88;;
76712;SDS011;65640;43.154;25.658;2023-02-19T12:59:39;0.98;;;0.82;;
76712;SDS011;65640;43.154;25.658;2023-02-19T13:02:14;1.20;;;0.70;;
76712;SDS011;65640;43.154;25.658;2023-02-19T13:07:43;0.70;;;0.70;;
76712;SDS011;65640;43.154;25.658;2023-02-19T13:11:02;0.68;;;0.68;;
76712;SDS011;65640;43.154;25.658;2023-02-19T13:13:18;2.50;;;0.70;;
76712;SDS011;65640;43.154;25.658;2023-02-19T13:15:49;1.70;;;0.77;;
76712;SDS011;65640;43.154;25.658;2023-02-19T13:18:18;3.25;;;0.82;;
76712;SDS011;65640;43.154;25.658;2023-02-19T13:20:48;2.05;;;1.15;;
76712;SDS011;65640;43.154;25.658;2023-02-19T13:23:17;1.33;;;0.90;;
76712;SDS011;65640;43.154;25.658;2023-02-19T13:29:07;0.95;;;0.80;;
76712;SDS011;65640;43.154;25.658;2023-02-19T13:34:44;1.77;;;1.10;;
76712;SDS011;65640;43.154;25.658;2023-02-19T13:37:12;3.55;;;0.70;;
76712;SDS011;65640;43.154;25.658;2023-02-19T13:39:48;2.05;;;0.88;;
76712;SDS011;65640;43.154;25.658;2023-02-19T13:44:57;0.90;;;0.75;;
76712;SDS011;65640;43.154;25.658;2023-02-19T13:50:31;0.80;;;0.80;;
76712;SDS011;65640;43.154;25.658;2023-02-19T13:55:44;0.80;;;0.75;;
76712;SDS011;65640;43.154;25.658;2023-02-19T14:01:07;2.42;;;0.82;;
76712;SDS011;65640;43.154;25.658;2023-02-19T14:03:44;0.70;;;0.70;;
76712;SDS011;65640;43.154;25.658;2023-02-19T14:06:14;1.05;;;0.95;;
76712;SDS011;65640;43.154;25.658;2023-02-19T14:08:52;1.30;;;0.77;;
76712;SDS011;65640;43.154;25.658;2023-02-19T14:14:41;0.50;;;0.50;;
76712;SDS011;65640;43.154;25.658;2023-02-19T14:17:36;0.73;;;0.70;;
76712;SDS011;65640;43.154;25.658;2023-02-19T14:27:58;1.80;;;1.52;;
76712;SDS011;65640;43.154;25.658;2023-02-19T14:30:26;1.55;;;1.45;;
76712;SDS011;65640;43.154;25.658;2023-02-19T14:32:53;0.85;;;0.85;;
76712;SDS011;65640;43.154;25.658;2023-02-19T14:37:45;1.75;;;0.80;;
76712;SDS011;65640;43.154;25.658;2023-02-19T14:40:17;0.70;;;0.70;;
76712;SDS011;65640;43.154;25.658;2023-02-19T14:42:46;0.90;;;0.80;;
76712;SDS011;65640;43.154;25.658;2023-02-19T14:45:13;0.88;;;0.88;;
76712;SDS011;65640;43.154;25.658;2023-02-19T14:47:41;3.53;;;1.00;;
76712;SDS011;65640;43.154;25.658;2023-02-19T14:50:11;0.77;;;0.73;;
76712;SDS011;65640;43.154;25.658;2023-02-19T14:57:35;1.40;;;1.02;;
76712;SDS011;65640;43.154;25.658;2023-02-19T15:00:24;1.90;;;1.08;;
76712;SDS011;65640;43.154;25.658;2023-02-19T15:02:54;2.05;;;0.82;;
76712;SDS011;65640;43.154;25.658;2023-02-19T15:05:25;0.85;;;0.77;;
76712;SDS011;65640;43.154;25.658;2023-02-19T15:07:53;1.13;;;1.02;;
76712;SDS011;65640;43.154;25.658;2023-02-19T15:10:22;1.38;;;1.27;;
76712;SDS011;65640;43.154;25.658;2023-02-19T15:12:52;3.15;;;1.40;;
76712;SDS011;65640;43.154;25.658;2023-02-19T15:15:27;1.15;;;1.15;;
76712;SDS011;65640;43.154;25.658;2023-02-19T15:17:55;1.77;;;1.13;;
76712;SDS011;65640;43.154;25.658;2023-02-19T15:20:22;2.75;;;2.10;;
76712;SDS011;65640;43.154;25.658;2023-02-19T15:22:50;3.85;;;1.50;;
76712;SDS011;65640;43.154;25.658;2023-02-19T15:25:18;2.22;;;1.80;;
76712;SDS011;65640;43.154;25.658;2023-02-19T15:27:45;3.40;;;2.38;;
76712;SDS011;65640;43.154;25.658;2023-02-19T15:33:12;4.25;;;2.80;;
76712;SDS011;65640;43.154;25.658;2023-02-19T15:35:40;5.18;;;4.00;;
76712;SDS011;65640;43.154;25.658;2023-02-19T15:38:07;3.15;;;2.95;;
76712;SDS011;65640;43.154;25.658;2023-02-19T15:40:36;6.07;;;5.47;;
76712;SDS011;65640;43.154;25.658;2023-02-19T15:43:02;13.50;;;7.60;;
76712;SDS011;65640;43.154;25.658;2023-02-19T15:45:30;16.58;;;8.43;;
76712;SDS011;65640;43.154;25.658;2023-02-19T15:53:19;36.00;;;15.43;;
76712;SDS011;65640;43.154;25.658;2023-02-19T15:58:27;10.90;;;6.03;;
76712;SDS011;65640;43.154;25.658;2023-02-19T16:01:05;12.60;;;6.18;;
76712;SDS011;65640;43.154;25.658;2023-02-19T16:03:38;14.98;;;9.00;;
76712;SDS011;65640;43.154;25.658;2023-02-19T16:06:08;5.97;;;5.38;;
76712;SDS011;65640;43.154;25.658;2023-02-19T16:08:38;17.23;;;7.07;;
76712;SDS011;65640;43.154;25.658;2023-02-19T16:11:05;26.95;;;13.07;;
76712;SDS011;65640;43.154;25.658;2023-02-19T16:13:47;23.58;;;14.90;;
76712;SDS011;65640;43.154;25.658;2023-02-19T16:18:48;27.42;;;19.45;;
76712;SDS011;65640;43.154;25.658;2023-02-19T16:21:16;35.92;;;22.48;;
76712;SDS011;65640;43.154;25.658;2023-02-19T16:23:45;42.85;;;23.83;;
76712;SDS011;65640;43.154;25.658;2023-02-19T16:26:13;119.72;;;54.47;;
76712;SDS011;65640;43.154;25.658;2023-02-19T16:28:39;107.20;;;52.50;;
76712;SDS011;65640;43.154;25.658;2023-02-19T16:31:06;66.05;;;33.13;;
76712;SDS011;65640;43.154;25.658;2023-02-19T16:39:18;35.45;;;15.00;;
76712;SDS011;65640;43.154;25.658;2023-02-19T16:47:05;22.80;;;11.40;;
76712;SDS011;65640;43.154;25.658;2023-02-19T16:49:50;28.58;;;12.05;;
76712;SDS011;65640;43.154;25.658;2023-02-19T16:52:16;28.23;;;14.13;;
76712;SDS011;65640;43.154;25.658;2023-02-19T16:54:41;38.45;;;16.52;;
76712;SDS011;65640;43.154;25.658;2023-02-19T16:57:07;39.33;;;17.17;;
76712;SDS011;65640;43.154;25.658;2023-02-19T16:59:32;58.83;;;28.95;;
76712;SDS011;65640;43.154;25.658;2023-02-19T17:01:58;52.45;;;25.52;;
76712;SDS011;65640;43.154;25.658;2023-02-19T17:04:23;46.42;;;22.80;;
76712;SDS011;65640;43.154;25.658;2023-02-19T17:06:49;51.53;;;23.42;;
76712;SDS011;65640;43.154;25.658;2023-02-19T17:09:14;40.28;;;19.65;;
76712;SDS011;65640;43.154;25.658;2023-02-19T17:11:40;40.30;;;20.23;;
76712;SDS011;65640;43.154;25.658;2023-02-19T17:14:05;42.08;;;18.90;;
76712;SDS011;65640;43.154;25.658;2023-02-19T17:19:04;35.53;;;17.50;;
76712;SDS011;65640;43.154;25.658;2023-02-19T17:21:36;27.38;;;15.73;;
76712;SDS011;65640;43.154;25.658;2023-02-19T17:24:01;20.75;;;12.55;;
76712;SDS011;65640;43.154;25.658;2023-02-19T17:26:28;16.23;;;12.00;;
76712;SDS011;65640;43.154;25.658;2023-02-19T17:28:55;15.82;;;10.85;;